sensor_id;sensor_type;location;lat;lon;timestamp;P1;durP1;ratioP1;P2;durP2;ratioP2
9186;SDS011;7273;48.902;9.410;2022-09-20T00:00:41;12.60;;;11.27;;
9186;SDS011;7273;48.902;9.410;2022-09-20T00:03:08;11.88;;;10.75;;
9186;SDS011;7273;48.902;9.410;2022-09-20T00:05:34;12.55;;;11.35;;
9186;SDS011;7273;48.902;9.410;2022-09-20T00:08:01;12.45;;;11.27;;
9186;SDS011;7273;48.902;9.410;2022-09-20T00:10:28;13.75;;;12.38;;
9186;SDS011;7273;48.902;9.410;2022-09-20T00:12:55;16.00;;;14.43;;
9186;SDS011;7273;48.902;9.410;2022-09-20T00:15:21;17.17;;;15.43;;
9186;SDS011;7273;48.902;9.410;2022-09-20T00:17:46;18.73;;;16.83;;
9186;SDS011;7273;48.902;9.410;2022-09-20T00:20:12;19.42;;;17.33;;
9186;SDS011;7273;48.902;9.410;2022-09-20T00:22:37;20.70;;;18.55;;
9186;SDS011;7273;48.902;9.410;2022-09-20T00:25:03;21.05;;;18.90;;
9186;SDS011;7273;48.902;9.410;2022-09-20T00:27:29;20.63;;;18.58;;
9186;SDS011;7273;48.902;9.410;2022-09-20T00:29:55;27.05;;;23.27;;
9186;SDS011;7273;48.902;9.410;2022-09-20T00:32:20;33.72;;;27.92;;
9186;SDS011;7273;48.902;9.410;2022-09-20T00:34:46;47.53;;;34.08;;
9186;SDS011;7273;48.902;9.410;2022-09-20T00:37:30;69.95;;;41.70;;
9186;SDS011;7273;48.902;9.410;2022-09-20T00:39:55;78.38;;;45.47;;
9186;SDS011;7273;48.902;9.410;2022-09-20T00:42:25;132.13;;;61.03;;
9186;SDS011;7273;48.902;9.410;2022-09-20T00:52:43;87.93;;;47.00;;
9186;SDS011;7273;48.902;9.410;2022-09-20T00:55:13;139.75;;;62.60;;
9186;SDS011;7273;48.902;9.410;2022-09-20T00:57:40;114.30;;;56.05;;
9186;SDS011;7273;48.902;9.410;2022-09-20T01:00:09;117.07;;;56.08;;
9186;SDS011;7273;48.902;9.410;2022-09-20T01:02:36;113.00;;;55.38;;
9186;SDS011;7273;48.902;9.410;2022-09-20T01:05:09;116.60;;;56.22;;
9186;SDS011;7273;48.902;9.410;2022-09-20T01:07:37;64.57;;;40.42;;
9186;SDS011;7273;48.902;9.410;2022-09-20T01:10:04;59.38;;;38.75;;
9186;SDS011;7273;48.902;9.410;2022-09-20T01:12:31;42.05;;;31.35;;
9186;SDS011;7273;48.902;9.410;2022-09-20T01:14:59;36.10;;;28.98;;
9186;SDS011;7273;48.902;9.410;2022-09-20T01:17:30;29.20;;;24.90;;
9186;SDS011;7273;48.902;9.410;2022-09-20T01:28:33;57.22;;;37.80;;
9186;SDS011;7273;48.902;9.410;2022-09-20T01:31:06;37.42;;;28.60;;
9186;SDS011;7273;48.902;9.410;2022-09-20T01:33:55;46.35;;;33.97;;
9186;SDS011;7273;48.902;9.410;2022-09-20T01:39:34;19.73;;;17.27;;
9186;SDS011;7273;48.902;9.410;2022-09-20T01:42:07;27.77;;;23.52;;
9186;SDS011;7273;48.902;9.410;2022-09-20T01:44:39;32.60;;;27.23;;
9186;SDS011;7273;48.902;9.410;2022-09-20T01:47:30;27.63;;;24.42;;
9186;SDS011;7273;48.902;9.410;2022-09-20T02:01:39;27.08;;;21.10;;
9186;SDS011;7273;48.902;9.410;2022-09-20T02:12:55;21.27;;;17.27;;
9186;SDS011;7273;48.902;9.410;2022-09-20T02:29:57;6.68;;;5.40;;
9186;SDS011;7273;48.902;9.410;2022-09-20T02:35:00;6.10;;;4.55;;
9186;SDS011;7273;48.902;9.410;2022-09-20T02:37:53;8.15;;;4.43;;
9186;SDS011;7273;48.902;9.410;2022-09-20T02:43:55;12.07;;;9.98;;
9186;SDS011;7273;48.902;9.410;2022-09-20T02:46:32;12.73;;;9.13;;
9186;SDS011;7273;48.902;9.410;2022-09-20T02:49:34;8.82;;;7.53;;
9186;SDS011;7273;48.902;9.410;2022-09-20T02:55:04;4.40;;;3.97;;
9186;SDS011;7273;48.902;9.410;2022-09-20T02:57:43;3.92;;;2.90;;
9186;SDS011;7273;48.902;9.410;2022-09-20T03:00:19;4.93;;;3.80;;
9186;SDS011;7273;48.902;9.410;2022-09-20T03:05:25;5.57;;;3.95;;
9186;SDS011;7273;48.902;9.410;2022-09-20T03:13:33;23.10;;;20.20;;
9186;SDS011;7273;48.902;9.410;2022-09-20T03:27:14;23.58;;;19.08;;
9186;SDS011;7273;48.902;9.410;2022-09-20T03:35:27;36.67;;;29.13;;
9186;SDS011;7273;48.902;9.410;2022-09-20T03:43:48;29.42;;;24.60;;
9186;SDS011;7273;48.902;9.410;2022-09-20T04:00:06;22.10;;;17.75;;
9186;SDS011;7273;48.902;9.410;2022-09-20T04:02:37;21.20;;;17.33;;
9186;SDS011;7273;48.902;9.410;2022-09-20T04:05:17;14.95;;;13.45;;
9186;SDS011;7273;48.902;9.410;2022-09-20T04:10:39;12.70;;;11.05;;
9186;SDS011;7273;48.902;9.410;2022-09-20T04:19:10;13.13;;;11.38;;
9186;SDS011;7273;48.902;9.410;2022-09-20T04:21:47;14.57;;;12.70;;
9186;SDS011;7273;48.902;9.410;2022-09-20T04:27:13;14.23;;;12.65;;
9186;SDS011;7273;48.902;9.410;2022-09-20T04:32:41;16.02;;;14.30;;
9186;SDS011;7273;48.902;9.410;2022-09-20T04:38:17;27.27;;;22.23;;
9186;SDS011;7273;48.902;9.410;2022-09-20T05:17:13;143.27;;;64.00;;
9186;SDS011;7273;48.902;9.410;2022-09-20T05:30:49;25.58;;;14.40;;
9186;SDS011;7273;48.902;9.410;2022-09-20T05:33:28;53.60;;;33.13;;
9186;SDS011;7273;48.902;9.410;2022-09-20T05:38:51;67.95;;;31.55;;
9186;SDS011;7273;48.902;9.410;2022-09-20T05:41:44;10.95;;;3.80;;
9186;SDS011;7273;48.902;9.410;2022-09-20T05:52:51;1.65;;;0.80;;
9186;SDS011;7273;48.902;9.410;2022-09-20T06:00:52;5.50;;;0.70;;
9186;SDS011;7273;48.902;9.410;2022-09-20T06:03:29;1.20;;;0.55;;
9186;SDS011;7273;48.902;9.410;2022-09-20T06:06:45;0.28;;;0.15;;
9186;SDS011;7273;48.902;9.410;2022-09-20T06:15:15;1.85;;;1.00;;
9186;SDS011;7273;48.902;9.410;2022-09-20T06:23:10;0.55;;;0.30;;
9186;SDS011;7273;48.902;9.410;2022-09-20T06:28:44;0.28;;;0.13;;
9186;SDS011;7273;48.902;9.410;2022-09-20T06:31:19;0.90;;;0.68;;
9186;SDS011;7273;48.902;9.410;2022-09-20T06:36:15;2.97;;;0.85;;
9186;SDS011;7273;48.902;9.410;2022-09-20T06:39:07;1.33;;;0.40;;
9186;SDS011;7273;48.902;9.410;2022-09-20T06:42:03;0.50;;;0.35;;
9186;SDS011;7273;48.902;9.410;2022-09-20T06:44:30;0.70;;;0.35;;
9186;SDS011;7273;48.902;9.410;2022-09-20T06:46:55;2.33;;;0.52;;
9186;SDS011;7273;48.902;9.410;2022-09-20T06:49:21;2.95;;;1.38;;
9186;SDS011;7273;48.902;9.410;2022-09-20T06:51:48;14.52;;;0.90;;
9186;SDS011;7273;48.902;9.410;2022-09-20T06:54:18;0.52;;;0.35;;
9186;SDS011;7273;48.902;9.410;2022-09-20T06:56:45;1.30;;;0.68;;
9186;SDS011;7273;48.902;9.410;2022-09-20T06:59:13;1.52;;;0.45;;
9186;SDS011;7273;48.902;9.410;2022-09-20T07:01:39;1.63;;;0.70;;
9186;SDS011;7273;48.902;9.410;2022-09-20T07:04:05;5.80;;;0.70;;
9186;SDS011;7273;48.902;9.410;2022-09-20T07:06:31;1.08;;;0.43;;
9186;SDS011;7273;48.902;9.410;2022-09-20T07:08:57;1.90;;;0.82;;
9186;SDS011;7273;48.902;9.410;2022-09-20T07:11:23;1.85;;;0.82;;
9186;SDS011;7273;48.902;9.410;2022-09-20T07:13:49;5.47;;;1.42;;
9186;SDS011;7273;48.902;9.410;2022-09-20T07:16:16;10.75;;;1.38;;
9186;SDS011;7273;48.902;9.410;2022-09-20T07:18:42;1.38;;;0.52;;
9186;SDS011;7273;48.902;9.410;2022-09-20T07:21:11;1.13;;;0.50;;
9186;SDS011;7273;48.902;9.410;2022-09-20T07:23:38;0.65;;;0.32;;
9186;SDS011;7273;48.902;9.410;2022-09-20T07:26:04;1.73;;;0.73;;
9186;SDS011;7273;48.902;9.410;2022-09-20T07:28:31;10.73;;;1.08;;
9186;SDS011;7273;48.902;9.410;2022-09-20T07:30:58;17.60;;;1.35;;
9186;SDS011;7273;48.902;9.410;2022-09-20T07:33:23;2.25;;;1.10;;
9186;SDS011;7273;48.902;9.410;2022-09-20T07:35:52;0.88;;;0.50;;
9186;SDS011;7273;48.902;9.410;2022-09-20T07:38:19;3.60;;;1.50;;
9186;SDS011;7273;48.902;9.410;2022-09-20T07:40:53;2.22;;;0.90;;
9186;SDS011;7273;48.902;9.410;2022-09-20T07:43:23;1.42;;;0.55;;
9186;SDS011;7273;48.902;9.410;2022-09-20T07:45:49;2.05;;;1.08;;
9186;SDS011;7273;48.902;9.410;2022-09-20T07:48:19;9.18;;;1.23;;
9186;SDS011;7273;48.902;9.410;2022-09-20T07:50:50;2.15;;;0.88;;
9186;SDS011;7273;48.902;9.410;2022-09-20T07:53:18;2.13;;;0.93;;
9186;SDS011;7273;48.902;9.410;2022-09-20T07:55:54;6.45;;;0.93;;
9186;SDS011;7273;48.902;9.410;2022-09-20T07:58:28;19.92;;;0.77;;
9186;SDS011;7273;48.902;9.410;2022-09-20T08:00:55;2.58;;;1.35;;
9186;SDS011;7273;48.902;9.410;2022-09-20T08:03:23;6.53;;;1.45;;
9186;SDS011;7273;48.902;9.410;2022-09-20T08:05:50;1.17;;;0.45;;
9186;SDS011;7273;48.902;9.410;2022-09-20T08:08:16;2.63;;;1.15;;
9186;SDS011;7273;48.902;9.410;2022-09-20T08:10:43;4.22;;;1.63;;
9186;SDS011;7273;48.902;9.410;2022-09-20T08:13:10;1.33;;;0.70;;
9186;SDS011;7273;48.902;9.410;2022-09-20T08:15:37;21.98;;;1.40;;
9186;SDS011;7273;48.902;9.410;2022-09-20T08:18:02;3.13;;;1.15;;
9186;SDS011;7273;48.902;9.410;2022-09-20T08:20:28;1.65;;;0.73;;
9186;SDS011;7273;48.902;9.410;2022-09-20T08:22:53;2.03;;;0.98;;
9186;SDS011;7273;48.902;9.410;2022-09-20T08:25:19;2.33;;;0.90;;
9186;SDS011;7273;48.902;9.410;2022-09-20T08:27:51;1.60;;;0.77;;
9186;SDS011;7273;48.902;9.410;2022-09-20T08:30:17;2.10;;;1.17;;
9186;SDS011;7273;48.902;9.410;2022-09-20T08:32:43;2.83;;;1.23;;
9186;SDS011;7273;48.902;9.410;2022-09-20T08:35:08;1.58;;;0.70;;
9186;SDS011;7273;48.902;9.410;2022-09-20T08:37:34;8.27;;;1.15;;
9186;SDS011;7273;48.902;9.410;2022-09-20T08:39:59;2.72;;;1.05;;
9186;SDS011;7273;48.902;9.410;2022-09-20T08:44:58;2.13;;;1.15;;
9186;SDS011;7273;48.902;9.410;2022-09-20T08:47:31;3.55;;;1.10;;
9186;SDS011;7273;48.902;9.410;2022-09-20T08:50:02;2.13;;;0.90;;
9186;SDS011;7273;48.902;9.410;2022-09-20T08:52:31;1.00;;;0.60;;
9186;SDS011;7273;48.902;9.410;2022-09-20T08:54:59;1.45;;;0.75;;
9186;SDS011;7273;48.902;9.410;2022-09-20T08:57:26;3.63;;;2.13;;
9186;SDS011;7273;48.902;9.410;2022-09-20T08:59:56;2.70;;;0.88;;
9186;SDS011;7273;48.902;9.410;2022-09-20T09:02:23;1.02;;;0.60;;
9186;SDS011;7273;48.902;9.410;2022-09-20T09:04:48;1.17;;;0.68;;
9186;SDS011;7273;48.902;9.410;2022-09-20T09:07:16;2.20;;;1.33;;
9186;SDS011;7273;48.902;9.410;2022-09-20T09:09:46;1.02;;;0.55;;
9186;SDS011;7273;48.902;9.410;2022-09-20T09:14:48;1.75;;;1.00;;
9186;SDS011;7273;48.902;9.410;2022-09-20T09:17:23;0.68;;;0.43;;
9186;SDS011;7273;48.902;9.410;2022-09-20T09:19:52;0.25;;;0.20;;
9186;SDS011;7273;48.902;9.410;2022-09-20T09:22:22;0.88;;;0.47;;
9186;SDS011;7273;48.902;9.410;2022-09-20T09:25:08;12.63;;;0.77;;
9186;SDS011;7273;48.902;9.410;2022-09-20T09:30:18;0.38;;;0.25;;
9186;SDS011;7273;48.902;9.410;2022-09-20T09:32:52;4.03;;;0.65;;
9186;SDS011;7273;48.902;9.410;2022-09-20T09:35:37;1.90;;;0.60;;
9186;SDS011;7273;48.902;9.410;2022-09-20T09:38:02;2.15;;;0.90;;
9186;SDS011;7273;48.902;9.410;2022-09-20T09:40:28;4.57;;;1.00;;
9186;SDS011;7273;48.902;9.410;2022-09-20T09:43:00;2.10;;;0.93;;
9186;SDS011;7273;48.902;9.410;2022-09-20T09:45:33;1.13;;;0.77;;
9186;SDS011;7273;48.902;9.410;2022-09-20T09:48:26;6.95;;;0.60;;
9186;SDS011;7273;48.902;9.410;2022-09-20T09:53:33;1.80;;;0.25;;
9186;SDS011;7273;48.902;9.410;2022-09-20T09:56:10;0.75;;;0.45;;
9186;SDS011;7273;48.902;9.410;2022-09-20T10:06:47;0.65;;;0.50;;
9186;SDS011;7273;48.902;9.410;2022-09-20T10:14:56;0.80;;;0.57;;
9186;SDS011;7273;48.902;9.410;2022-09-20T10:36:24;0.57;;;0.50;;
9186;SDS011;7273;48.902;9.410;2022-09-20T10:47:28;0.60;;;0.30;;
9186;SDS011;7273;48.902;9.410;2022-09-20T10:50:19;0.85;;;0.50;;
9186;SDS011;7273;48.902;9.410;2022-09-20T11:09:34;0.52;;;0.30;;
9186;SDS011;7273;48.902;9.410;2022-09-20T11:12:11;1.27;;;0.47;;
9186;SDS011;7273;48.902;9.410;2022-09-20T11:14:47;0.43;;;0.43;;
9186;SDS011;7273;48.902;9.410;2022-09-20T11:17:39;1.27;;;0.73;;
9186;SDS011;7273;48.902;9.410;2022-09-20T11:20:22;0.52;;;0.30;;
9186;SDS011;7273;48.902;9.410;2022-09-20T11:22:57;0.45;;;0.32;;
9186;SDS011;7273;48.902;9.410;2022-09-20T11:35:52;0.40;;;0.30;;
9186;SDS011;7273;48.902;9.410;2022-09-20T11:38:25;0.30;;;0.30;;
9186;SDS011;7273;48.902;9.410;2022-09-20T11:41:13;1.58;;;0.73;;
9186;SDS011;7273;48.902;9.410;2022-09-20T11:43:43;12.65;;;0.77;;
9186;SDS011;7273;48.902;9.410;2022-09-20T11:46:18;4.28;;;0.60;;
9186;SDS011;7273;48.902;9.410;2022-09-20T11:49:01;1.48;;;0.28;;
9186;SDS011;7273;48.902;9.410;2022-09-20T11:54:28;0.75;;;0.35;;
9186;SDS011;7273;48.902;9.410;2022-09-20T11:57:10;7.63;;;0.75;;
9186;SDS011;7273;48.902;9.410;2022-09-20T11:59:39;4.55;;;0.65;;
9186;SDS011;7273;48.902;9.410;2022-09-20T12:02:17;0.20;;;0.10;;
9186;SDS011;7273;48.902;9.410;2022-09-20T12:05:04;8.98;;;0.88;;
9186;SDS011;7273;48.902;9.410;2022-09-20T12:07:35;0.20;;;0.10;;
9186;SDS011;7273;48.902;9.410;2022-09-20T12:10:04;1.10;;;0.30;;
9186;SDS011;7273;48.902;9.410;2022-09-20T12:12:48;2.05;;;0.73;;
9186;SDS011;7273;48.902;9.410;2022-09-20T12:26:08;0.73;;;0.30;;
9186;SDS011;7273;48.902;9.410;2022-09-20T12:28:43;1.90;;;0.65;;
9186;SDS011;7273;48.902;9.410;2022-09-20T12:34:00;1.63;;;0.65;;
9186;SDS011;7273;48.902;9.410;2022-09-20T12:36:34;0.30;;;0.25;;
9186;SDS011;7273;48.902;9.410;2022-09-20T12:39:03;1.27;;;0.55;;
9186;SDS011;7273;48.902;9.410;2022-09-20T12:41:43;0.52;;;0.15;;
9186;SDS011;7273;48.902;9.410;2022-09-20T12:55:10;2.47;;;0.47;;
9186;SDS011;7273;48.902;9.410;2022-09-20T12:57:37;0.20;;;0.10;;
9186;SDS011;7273;48.902;9.410;2022-09-20T13:00:05;0.25;;;0.22;;
9186;SDS011;7273;48.902;9.410;2022-09-20T13:05:42;1.55;;;0.47;;
9186;SDS011;7273;48.902;9.410;2022-09-20T13:10:39;4.47;;;0.60;;
9186;SDS011;7273;48.902;9.410;2022-09-20T13:13:26;0.60;;;0.40;;
9186;SDS011;7273;48.902;9.410;2022-09-20T13:15:55;9.60;;;0.75;;
9186;SDS011;7273;48.902;9.410;2022-09-20T13:18:22;1.42;;;0.68;;
9186;SDS011;7273;48.902;9.410;2022-09-20T13:20:50;0.65;;;0.43;;
9186;SDS011;7273;48.902;9.410;2022-09-20T13:23:20;0.30;;;0.30;;
9186;SDS011;7273;48.902;9.410;2022-09-20T13:25:51;0.75;;;0.52;;
9186;SDS011;7273;48.902;9.410;2022-09-20T13:33:45;0.88;;;0.45;;
9186;SDS011;7273;48.902;9.410;2022-09-20T13:36:11;0.95;;;0.47;;
9186;SDS011;7273;48.902;9.410;2022-09-20T13:38:38;3.30;;;1.17;;
9186;SDS011;7273;48.902;9.410;2022-09-20T13:41:04;0.20;;;0.17;;
9186;SDS011;7273;48.902;9.410;2022-09-20T13:43:41;0.50;;;0.50;;
9186;SDS011;7273;48.902;9.410;2022-09-20T13:48:41;1.98;;;0.60;;
9186;SDS011;7273;48.902;9.410;2022-09-20T13:51:23;1.50;;;0.45;;
9186;SDS011;7273;48.902;9.410;2022-09-20T13:53:50;0.68;;;0.40;;
9186;SDS011;7273;48.902;9.410;2022-09-20T13:58:47;0.43;;;0.30;;
9186;SDS011;7273;48.902;9.410;2022-09-20T14:01:47;0.30;;;0.30;;
9186;SDS011;7273;48.902;9.410;2022-09-20T14:04:13;0.50;;;0.40;;
9186;SDS011;7273;48.902;9.410;2022-09-20T14:06:40;5.47;;;0.43;;
9186;SDS011;7273;48.902;9.410;2022-09-20T14:09:07;0.40;;;0.30;;
9186;SDS011;7273;48.902;9.410;2022-09-20T14:11:42;0.98;;;0.52;;
9186;SDS011;7273;48.902;9.410;2022-09-20T14:14:09;0.20;;;0.20;;
9186;SDS011;7273;48.902;9.410;2022-09-20T14:16:39;2.40;;;0.70;;
9186;SDS011;7273;48.902;9.410;2022-09-20T14:19:09;0.57;;;0.28;;
9186;SDS011;7273;48.902;9.410;2022-09-20T14:21:38;0.60;;;0.45;;
9186;SDS011;7273;48.902;9.410;2022-09-20T14:24:05;1.30;;;0.38;;
9186;SDS011;7273;48.902;9.410;2022-09-20T14:26:41;1.17;;;0.55;;
9186;SDS011;7273;48.902;9.410;2022-09-20T14:29:41;1.42;;;0.32;;
9186;SDS011;7273;48.902;9.410;2022-09-20T14:32:08;0.93;;;0.40;;
9186;SDS011;7273;48.902;9.410;2022-09-20T14:34:39;1.58;;;0.75;;
9186;SDS011;7273;48.902;9.410;2022-09-20T14:37:06;0.60;;;0.40;;
9186;SDS011;7273;48.902;9.410;2022-09-20T14:39:44;0.70;;;0.50;;
9186;SDS011;7273;48.902;9.410;2022-09-20T14:42:21;3.17;;;0.70;;
9186;SDS011;7273;48.902;9.410;2022-09-20T14:44:50;0.98;;;0.30;;
9186;SDS011;7273;48.902;9.410;2022-09-20T14:47:22;1.27;;;0.63;;
9186;SDS011;7273;48.902;9.410;2022-09-20T14:49:50;1.08;;;0.50;;
9186;SDS011;7273;48.902;9.410;2022-09-20T14:52:49;1.55;;;0.70;;
9186;SDS011;7273;48.902;9.410;2022-09-20T15:00:12;3.77;;;1.13;;
9186;SDS011;7273;48.902;9.410;2022-09-20T15:02:41;8.15;;;0.70;;
9186;SDS011;7273;48.902;9.410;2022-09-20T15:05:14;1.75;;;0.65;;
9186;SDS011;7273;48.902;9.410;2022-09-20T15:10:12;2.53;;;0.93;;
9186;SDS011;7273;48.902;9.410;2022-09-20T15:12:38;1.23;;;0.52;;
9186;SDS011;7273;48.902;9.410;2022-09-20T15:15:04;2.38;;;0.88;;
9186;SDS011;7273;48.902;9.410;2022-09-20T15:17:30;3.95;;;0.77;;
9186;SDS011;7273;48.902;9.410;2022-09-20T15:19:55;3.42;;;2.20;;
9186;SDS011;7273;48.902;9.410;2022-09-20T15:22:21;1.65;;;0.65;;
9186;SDS011;7273;48.902;9.410;2022-09-20T15:24:47;6.57;;;0.95;;
9186;SDS011;7273;48.902;9.410;2022-09-20T15:27:12;0.68;;;0.30;;
9186;SDS011;7273;48.902;9.410;2022-09-20T15:29:38;1.55;;;0.65;;
9186;SDS011;7273;48.902;9.410;2022-09-20T15:32:03;6.60;;;1.30;;
9186;SDS011;7273;48.902;9.410;2022-09-20T15:34:30;1.27;;;0.52;;
9186;SDS011;7273;48.902;9.410;2022-09-20T15:36:55;2.35;;;0.70;;
9186;SDS011;7273;48.902;9.410;2022-09-20T15:39:21;2.15;;;0.70;;
9186;SDS011;7273;48.902;9.410;2022-09-20T15:41:46;1.65;;;0.57;;
9186;SDS011;7273;48.902;9.410;2022-09-20T15:44:13;1.35;;;0.52;;
9186;SDS011;7273;48.902;9.410;2022-09-20T15:46:40;3.47;;;1.58;;
9186;SDS011;7273;48.902;9.410;2022-09-20T15:49:06;1.35;;;0.52;;
9186;SDS011;7273;48.902;9.410;2022-09-20T15:51:32;4.60;;;1.35;;
9186;SDS011;7273;48.902;9.410;2022-09-20T15:54:00;1.08;;;0.47;;
9186;SDS011;7273;48.902;9.410;2022-09-20T15:56:31;3.47;;;2.05;;
9186;SDS011;7273;48.902;9.410;2022-09-20T15:59:01;2.80;;;1.05;;
9186;SDS011;7273;48.902;9.410;2022-09-20T16:01:31;3.10;;;1.23;;
9186;SDS011;7273;48.902;9.410;2022-09-20T16:04:03;2.78;;;1.88;;
9186;SDS011;7273;48.902;9.410;2022-09-20T16:06:30;1.45;;;0.50;;
9186;SDS011;7273;48.902;9.410;2022-09-20T16:08:56;1.88;;;0.55;;
9186;SDS011;7273;48.902;9.410;2022-09-20T16:11:21;4.68;;;1.08;;
9186;SDS011;7273;48.902;9.410;2022-09-20T16:13:51;2.25;;;0.90;;
9186;SDS011;7273;48.902;9.410;2022-09-20T16:16:17;1.60;;;0.55;;
9186;SDS011;7273;48.902;9.410;2022-09-20T16:18:43;2.15;;;0.80;;
9186;SDS011;7273;48.902;9.410;2022-09-20T16:21:27;3.10;;;1.15;;
9186;SDS011;7273;48.902;9.410;2022-09-20T16:23:54;5.30;;;0.88;;
9186;SDS011;7273;48.902;9.410;2022-09-20T16:26:21;3.45;;;1.20;;
9186;SDS011;7273;48.902;9.410;2022-09-20T16:28:48;3.47;;;1.35;;
9186;SDS011;7273;48.902;9.410;2022-09-20T16:31:27;3.45;;;1.08;;
9186;SDS011;7273;48.902;9.410;2022-09-20T16:33:53;2.97;;;1.13;;
9186;SDS011;7273;48.902;9.410;2022-09-20T16:36:18;2.78;;;1.17;;
9186;SDS011;7273;48.902;9.410;2022-09-20T16:38:44;3.42;;;1.15;;
9186;SDS011;7273;48.902;9.410;2022-09-20T16:41:10;3.10;;;0.90;;
9186;SDS011;7273;48.902;9.410;2022-09-20T16:43:35;3.92;;;1.20;;
9186;SDS011;7273;48.902;9.410;2022-09-20T16:46:02;5.07;;;1.42;;
9186;SDS011;7273;48.902;9.410;2022-09-20T16:48:28;5.55;;;3.08;;
9186;SDS011;7273;48.902;9.410;2022-09-20T16:50:55;2.13;;;1.00;;
9186;SDS011;7273;48.902;9.410;2022-09-20T16:53:24;4.60;;;2.63;;
9186;SDS011;7273;48.902;9.410;2022-09-20T16:55:50;2.42;;;0.68;;
9186;SDS011;7273;48.902;9.410;2022-09-20T16:58:16;5.45;;;3.03;;
9186;SDS011;7273;48.902;9.410;2022-09-20T17:00:41;4.47;;;2.35;;
9186;SDS011;7273;48.902;9.410;2022-09-20T17:03:07;6.28;;;2.38;;
9186;SDS011;7273;48.902;9.410;2022-09-20T17:05:32;4.88;;;2.92;;
9186;SDS011;7273;48.902;9.410;2022-09-20T17:07:58;3.00;;;1.00;;
9186;SDS011;7273;48.902;9.410;2022-09-20T17:10:26;2.90;;;1.15;;
9186;SDS011;7273;48.902;9.410;2022-09-20T17:12:53;3.80;;;2.13;;
9186;SDS011;7273;48.902;9.410;2022-09-20T17:15:22;1.33;;;0.60;;
9186;SDS011;7273;48.902;9.410;2022-09-20T17:17:48;3.65;;;1.58;;
9186;SDS011;7273;48.902;9.410;2022-09-20T17:20:14;3.38;;;1.38;;
9186;SDS011;7273;48.902;9.410;2022-09-20T17:22:39;2.75;;;0.90;;
9186;SDS011;7273;48.902;9.410;2022-09-20T17:25:06;3.85;;;0.80;;
9186;SDS011;7273;48.902;9.410;2022-09-20T17:27:32;2.00;;;0.70;;
9186;SDS011;7273;48.902;9.410;2022-09-20T17:29:58;3.72;;;1.45;;
9186;SDS011;7273;48.902;9.410;2022-09-20T17:32:23;3.83;;;2.20;;
9186;SDS011;7273;48.902;9.410;2022-09-20T17:34:49;4.75;;;2.50;;
9186;SDS011;7273;48.902;9.410;2022-09-20T17:37:14;3.20;;;1.38;;
9186;SDS011;7273;48.902;9.410;2022-09-20T17:39:40;2.50;;;1.15;;
9186;SDS011;7273;48.902;9.410;2022-09-20T17:42:05;5.88;;;3.90;;
9186;SDS011;7273;48.902;9.410;2022-09-20T17:44:30;2.50;;;0.98;;
9186;SDS011;7273;48.902;9.410;2022-09-20T17:47:00;2.03;;;0.93;;
9186;SDS011;7273;48.902;9.410;2022-09-20T17:49:26;9.15;;;1.48;;
9186;SDS011;7273;48.902;9.410;2022-09-20T17:51:53;3.80;;;1.95;;
9186;SDS011;7273;48.902;9.410;2022-09-20T17:54:20;1.65;;;0.50;;
9186;SDS011;7273;48.902;9.410;2022-09-20T17:56:50;4.85;;;2.42;;
9186;SDS011;7273;48.902;9.410;2022-09-20T17:59:17;4.30;;;1.17;;
9186;SDS011;7273;48.902;9.410;2022-09-20T18:01:44;3.88;;;1.90;;
9186;SDS011;7273;48.902;9.410;2022-09-20T18:04:11;2.80;;;1.05;;
9186;SDS011;7273;48.902;9.410;2022-09-20T18:06:38;7.47;;;5.22;;
9186;SDS011;7273;48.902;9.410;2022-09-20T18:09:14;5.18;;;2.92;;
9186;SDS011;7273;48.902;9.410;2022-09-20T18:11:42;4.78;;;3.75;;
9186;SDS011;7273;48.902;9.410;2022-09-20T18:14:10;2.35;;;0.77;;
9186;SDS011;7273;48.902;9.410;2022-09-20T18:16:37;6.47;;;4.80;;
9186;SDS011;7273;48.902;9.410;2022-09-20T18:19:04;1.63;;;0.73;;
9186;SDS011;7273;48.902;9.410;2022-09-20T18:21:30;2.55;;;1.00;;
9186;SDS011;7273;48.902;9.410;2022-09-20T18:23:57;2.90;;;1.42;;
9186;SDS011;7273;48.902;9.410;2022-09-20T18:26:24;9.18;;;4.30;;
9186;SDS011;7273;48.902;9.410;2022-09-20T18:31:22;2.38;;;0.80;;
9186;SDS011;7273;48.902;9.410;2022-09-20T18:33:55;6.97;;;4.90;;
9186;SDS011;7273;48.902;9.410;2022-09-20T18:36:21;3.63;;;1.00;;
9186;SDS011;7273;48.902;9.410;2022-09-20T18:38:51;5.90;;;3.17;;
9186;SDS011;7273;48.902;9.410;2022-09-20T18:41:19;2.67;;;1.00;;
9186;SDS011;7273;48.902;9.410;2022-09-20T18:43:48;2.22;;;0.93;;
9186;SDS011;7273;48.902;9.410;2022-09-20T18:46:13;10.00;;;7.68;;
9186;SDS011;7273;48.902;9.410;2022-09-20T18:48:39;5.15;;;3.05;;
9186;SDS011;7273;48.902;9.410;2022-09-20T18:51:05;9.02;;;5.90;;
9186;SDS011;7273;48.902;9.410;2022-09-20T18:53:33;3.92;;;1.17;;
9186;SDS011;7273;48.902;9.410;2022-09-20T18:56:07;28.23;;;21.38;;
9186;SDS011;7273;48.902;9.410;2022-09-20T18:58:37;1.75;;;0.55;;
9186;SDS011;7273;48.902;9.410;2022-09-20T19:03:49;4.88;;;1.85;;
9186;SDS011;7273;48.902;9.410;2022-09-20T19:06:22;63.80;;;40.03;;
9186;SDS011;7273;48.902;9.410;2022-09-20T19:08:54;2.40;;;0.95;;
9186;SDS011;7273;48.902;9.410;2022-09-20T19:11:26;2.67;;;1.60;;
9186;SDS011;7273;48.902;9.410;2022-09-20T19:14:04;2.88;;;1.17;;
9186;SDS011;7273;48.902;9.410;2022-09-20T19:16:36;2.97;;;1.38;;
9186;SDS011;7273;48.902;9.410;2022-09-20T19:19:20;13.20;;;9.50;;
9186;SDS011;7273;48.902;9.410;2022-09-20T19:24:52;73.03;;;47.25;;
9186;SDS011;7273;48.902;9.410;2022-09-20T19:27:30;1.70;;;0.82;;
9186;SDS011;7273;48.902;9.410;2022-09-20T19:29:56;2.45;;;1.23;;
9186;SDS011;7273;48.902;9.410;2022-09-20T19:32:21;75.25;;;42.80;;
9186;SDS011;7273;48.902;9.410;2022-09-20T19:34:50;2.38;;;0.95;;
9186;SDS011;7273;48.902;9.410;2022-09-20T19:37:24;2.25;;;1.25;;
9186;SDS011;7273;48.902;9.410;2022-09-20T19:50:51;1.92;;;0.90;;
9186;SDS011;7273;48.902;9.410;2022-09-20T19:53:18;0.88;;;0.45;;
9186;SDS011;7273;48.902;9.410;2022-09-20T19:55:47;1.35;;;0.73;;
9186;SDS011;7273;48.902;9.410;2022-09-20T19:58:18;2.67;;;1.15;;
9186;SDS011;7273;48.902;9.410;2022-09-20T20:00:44;2.00;;;1.05;;
9186;SDS011;7273;48.902;9.410;2022-09-20T20:03:11;2.70;;;1.20;;
9186;SDS011;7273;48.902;9.410;2022-09-20T20:05:39;2.70;;;1.02;;
9186;SDS011;7273;48.902;9.410;2022-09-20T20:08:14;1.63;;;0.88;;
9186;SDS011;7273;48.902;9.410;2022-09-20T20:10:50;5.70;;;1.10;;
9186;SDS011;7273;48.902;9.410;2022-09-20T20:28:04;0.95;;;0.43;;
9186;SDS011;7273;48.902;9.410;2022-09-20T20:30:29;1.23;;;0.60;;
9186;SDS011;7273;48.902;9.410;2022-09-20T20:32:55;3.40;;;0.65;;
9186;SDS011;7273;48.902;9.410;2022-09-20T20:35:24;1.02;;;0.60;;
9186;SDS011;7273;48.902;9.410;2022-09-20T20:37:50;1.38;;;0.75;;
9186;SDS011;7273;48.902;9.410;2022-09-20T20:40:16;2.53;;;0.98;;
9186;SDS011;7273;48.902;9.410;2022-09-20T20:42:41;2.13;;;1.02;;
9186;SDS011;7273;48.902;9.410;2022-09-20T20:45:08;1.35;;;0.60;;
9186;SDS011;7273;48.902;9.410;2022-09-20T20:47:34;1.02;;;0.60;;
9186;SDS011;7273;48.902;9.410;2022-09-20T20:49:59;2.08;;;0.98;;
9186;SDS011;7273;48.902;9.410;2022-09-20T20:52:25;1.13;;;0.43;;
9186;SDS011;7273;48.902;9.410;2022-09-20T20:54:50;2.13;;;0.75;;
9186;SDS011;7273;48.902;9.410;2022-09-20T20:57:16;1.42;;;0.90;;
9186;SDS011;7273;48.902;9.410;2022-09-20T20:59:43;2.10;;;0.73;;
9186;SDS011;7273;48.902;9.410;2022-09-20T21:02:10;4.38;;;0.93;;
9186;SDS011;7273;48.902;9.410;2022-09-20T21:04:36;2.38;;;1.02;;
9186;SDS011;7273;48.902;9.410;2022-09-20T21:07:04;3.35;;;0.60;;
9186;SDS011;7273;48.902;9.410;2022-09-20T21:09:29;2.63;;;1.17;;
9186;SDS011;7273;48.902;9.410;2022-09-20T21:11:56;7.72;;;1.88;;
9186;SDS011;7273;48.902;9.410;2022-09-20T21:14:21;5.82;;;2.50;;
9186;SDS011;7273;48.902;9.410;2022-09-20T21:16:47;3.90;;;1.40;;
9186;SDS011;7273;48.902;9.410;2022-09-20T21:19:13;3.08;;;1.75;;
9186;SDS011;7273;48.902;9.410;2022-09-20T21:21:40;6.65;;;4.78;;
9186;SDS011;7273;48.902;9.410;2022-09-20T21:24:07;53.75;;;37.45;;
9186;SDS011;7273;48.902;9.410;2022-09-20T21:26:34;20.40;;;17.95;;
9186;SDS011;7273;48.902;9.410;2022-09-20T21:29:04;55.92;;;38.45;;
9186;SDS011;7273;48.902;9.410;2022-09-20T21:31:35;88.68;;;49.95;;
9186;SDS011;7273;48.902;9.410;2022-09-20T21:34:05;167.23;;;72.15;;
9186;SDS011;7273;48.902;9.410;2022-09-20T21:36:32;141.13;;;64.85;;
9186;SDS011;7273;48.902;9.410;2022-09-20T21:38:59;88.70;;;42.50;;